Saint Helena Island, United Kingdom
Current Conditions -  °F | °C
As of 5:50 PM on Thursday 29 Jan 2015 (Local Time) from FHAW Reporting Station
Few Clouds Few Clouds  
Wind Chill: 82°   Ceiling: Unl
Heat Index: 86°   Visibility: 6mi
Dew Point: 70°   Wind: 20mph
Humidity: 66%   Direction: 140°SE
Pressure: 29.85"   Gusts: NA
Location:  15.93°S, 5.07°W
Report Text: FHAW 291650Z 14017KT 9999 FEW022 28/21 Q1011 BLU NOSIG
Loading
Personal Weather Stations






























Interactive Weather Map New forecast layout! Learn more

10-Day Weather Forecast

Advertisements
Track Severe Weather on mobile